1CL6 weather

Lake Park Helistop
Sacramento, California, United States

Public forecast

Using degrees Fahrenheit for public forecast. Weather courtesy of forecast.io.

Closest aviation weather report (METAR) to Lake Park Helistop

Closest report is Sacramento Mather Airport, 3.9 nm (7.2 km) E. Retrieved 2019/12/14 22:50 UTC (47 minutes ago):

KMHR 142250Z 15003KT 10SM FEW036 14/08 A3000

Closest aviation forecast (TAF) to Lake Park Helistop

Closest forecast is Sacramento Mather Airport, 3.9 nm (7.2 km) E. Retrieved 2019/12/14 18:33 UTC (5 hours ago):

TAF KMHR 141731Z 1418/1518 18006KT P6SM SCT050 TEMPO 1418/1420 BKN010 FM142300 VRB05KT P6SM VCSH BKN050 FM150900 VRB05KT P6SM FEW050